createdAt,value
2019-01-04T00:00:42.337Z,106.05
2019-01-04T00:03:11.443Z,102.90
2019-01-04T00:05:39.925Z,109.70
2019-01-04T00:08:08.343Z,118.00
2019-01-04T00:10:36.736Z,108.78
2019-01-04T00:13:05.396Z,116.60
2019-01-04T00:15:34.088Z,104.45
2019-01-04T00:18:02.475Z,117.28
2019-01-04T00:20:31.458Z,131.95
2019-01-04T00:22:59.869Z,110.85
2019-01-04T00:25:28.275Z,130.10
2019-01-04T00:27:57.003Z,108.52
2019-01-04T00:30:25.463Z,113.97
2019-01-04T00:32:53.868Z,112.83
2019-01-04T00:35:22.268Z,121.97
2019-01-04T00:37:51.026Z,102.42
2019-01-04T00:40:19.420Z,123.47
2019-01-04T00:42:47.823Z,110.52
2019-01-04T00:45:16.227Z,104.65
2019-01-04T00:47:44.950Z,137.85
2019-01-04T00:50:13.530Z,106.07
2019-01-04T00:52:41.926Z,117.95
2019-01-04T00:55:16.033Z,128.57
2019-01-04T00:57:59.557Z,114.75
2019-01-04T01:00:40.088Z,115.72
2019-01-04T01:03:31.148Z,108.63
2019-01-04T01:06:05.665Z,119.10
2019-01-04T01:09:08.930Z,100.72
2019-01-04T01:11:57.049Z,129.32
2019-01-04T01:14:50.912Z,129.47
2019-01-04T01:17:27.929Z,133.32
2019-01-04T01:19:59.391Z,122.78
2019-01-04T01:22:48.581Z,135.57
2019-01-04T01:25:23.251Z,138.00
2019-01-04T01:28:11.439Z,131.35
2019-01-04T01:30:42.904Z,120.10
2019-01-04T01:33:26.262Z,129.05
2019-01-04T01:36:00.395Z,129.72
2019-01-04T01:38:31.840Z,117.93
2019-01-04T01:41:28.911Z,124.95
2019-01-04T01:44:06.430Z,117.10
2019-01-04T01:46:46.792Z,115.90
2019-01-04T01:49:21.356Z,127.67
2019-01-04T01:51:53.058Z,124.18
2019-01-04T01:54:21.469Z,134.25
2019-01-04T01:56:50.104Z,101.78
2019-01-04T01:59:18.591Z,111.28
2019-01-04T02:01:47.305Z,104.40
2019-01-04T02:04:15.709Z,107.03
2019-01-04T02:06:44.110Z,112.40
2019-01-04T02:09:12.508Z,101.35
2019-01-04T02:11:41.239Z,108.17
2019-01-04T02:14:09.629Z,102.82
2019-01-04T02:16:38.030Z,115.52
2019-01-04T02:19:06.502Z,107.63
2019-01-04T02:21:34.897Z,93.82
2019-01-04T02:24:03.630Z,118.60
2019-01-04T02:26:32.023Z,105.78
2019-01-04T02:29:00.699Z,98.45
2019-01-04T02:31:29.114Z,101.40
2019-01-04T02:33:57.762Z,108.25
2019-01-04T02:36:26.160Z,113.92
2019-01-04T02:38:54.822Z,111.97
2019-01-04T02:41:23.216Z,112.40
2019-01-04T02:43:51.623Z,98.25
2019-01-04T02:46:20.269Z,98.87
2019-01-04T02:48:48.954Z,106.00
2019-01-04T02:51:17.638Z,111.15
2019-01-04T02:53:46.048Z,114.17
2019-01-04T02:56:14.702Z,116.30
2019-01-04T02:58:43.113Z,114.35
2019-01-04T03:01:11.872Z,108.63
2019-01-04T03:03:40.270Z,135.48
2019-01-04T03:06:08.679Z,115.62
2019-01-04T03:08:37.080Z,119.37
2019-01-04T03:11:05.799Z,132.37
2019-01-04T03:13:34.213Z,116.22
2019-01-04T03:16:02.600Z,107.90
2019-01-04T03:18:30.998Z,112.97
2019-01-04T03:20:59.724Z,102.10
2019-01-04T03:23:28.118Z,102.30
2019-01-04T03:25:56.517Z,117.45
2019-01-04T03:28:25.266Z,117.10
2019-01-04T03:30:54.384Z,109.27
2019-01-04T03:33:23.151Z,110.60
2019-01-04T03:35:51.575Z,126.50
2019-01-04T03:38:19.960Z,113.47
2019-01-04T03:40:48.355Z,102.30
2019-01-04T03:43:16.767Z,110.32
2019-01-04T03:45:45.171Z,109.27
2019-01-04T03:48:13.562Z,112.95
2019-01-04T03:50:41.971Z,97.40
2019-01-04T03:53:10.369Z,116.60
2019-01-04T03:55:39.073Z,110.48
2019-01-04T03:58:07.491Z,102.85
2019-01-04T04:00:35.891Z,111.65
2019-01-04T04:03:04.295Z,112.80
2019-01-04T04:05:33.181Z,105.32
2019-01-04T04:08:01.890Z,110.45
2019-01-04T04:10:30.352Z,106.58
2019-01-04T04:12:58.761Z,109.10
2019-01-04T04:15:27.474Z,119.42
2019-01-04T04:17:55.876Z,108.25
2019-01-04T04:20:24.598Z,120.65
2019-01-04T04:22:52.995Z,114.25
2019-01-04T04:25:21.395Z,120.72
2019-01-04T04:27:49.809Z,117.72
2019-01-04T04:30:18.204Z,112.75
2019-01-04T04:32:46.903Z,135.07
2019-01-04T04:35:15.315Z,114.40
2019-01-04T04:37:43.714Z,114.82
2019-01-04T04:40:12.107Z,102.65
2019-01-04T04:42:40.511Z,130.57
2019-01-04T04:45:09.208Z,118.87
2019-01-04T04:47:37.892Z,126.22
2019-01-04T04:50:06.439Z,111.17
2019-01-04T04:52:34.832Z,128.87
2019-01-04T04:55:03.230Z,119.28
2019-01-04T04:57:31.919Z,112.22
2019-01-04T05:00:00.387Z,128.78
2019-01-04T05:02:29.089Z,130.90
2019-01-04T05:04:57.771Z,117.85
2019-01-04T05:07:26.168Z,122.80
2019-01-04T05:09:54.563Z,124.70
2019-01-04T05:12:22.976Z,111.37
2019-01-04T05:14:51.618Z,128.32
2019-01-04T05:17:20.012Z,128.30
2019-01-04T05:19:48.425Z,114.92
2019-01-04T05:22:17.138Z,118.30
2019-01-04T05:24:45.535Z,134.30
2019-01-04T05:27:14.189Z,117.77
2019-01-04T05:29:42.587Z,133.57
2019-01-04T05:32:11.269Z,130.07
2019-01-04T05:34:39.953Z,110.52
2019-01-04T05:37:08.356Z,120.62
2019-01-04T05:39:37.019Z,115.40
2019-01-04T05:42:05.441Z,138.82
2019-01-04T05:44:33.827Z,116.37
2019-01-04T05:47:02.463Z,103.55
2019-01-04T05:49:31.147Z,111.57
2019-01-04T05:51:59.841Z,104.12
2019-01-04T05:54:28.230Z,121.65
2019-01-04T05:56:56.635Z,93.20
2019-01-04T05:59:25.022Z,96.35
2019-01-04T06:01:53.759Z,99.77
2019-01-04T06:04:22.174Z,107.85
2019-01-04T06:06:50.825Z,108.27
2019-01-04T06:09:19.224Z,103.67
2019-01-04T06:11:47.635Z,107.58
2019-01-04T06:14:16.027Z,115.65
2019-01-04T06:16:44.430Z,102.25
2019-01-04T06:19:12.844Z,123.10
2019-01-04T06:21:41.236Z,124.75
2019-01-04T06:24:09.632Z,112.65
2019-01-04T06:26:38.045Z,111.52
2019-01-04T06:29:06.438Z,115.45
2019-01-04T06:31:35.126Z,102.40
2019-01-04T06:34:03.536Z,107.50
2019-01-04T06:36:32.172Z,114.67
2019-01-04T06:39:00.570Z,104.83
2019-01-04T06:41:28.983Z,110.00
2019-01-04T06:43:57.618Z,106.65
2019-01-04T06:46:26.255Z,115.70
2019-01-04T06:48:54.664Z,107.17
2019-01-04T06:51:27.716Z,108.78
2019-01-04T06:53:53.177Z,122.80
2019-01-04T06:56:21.597Z,109.85
2019-01-04T06:58:49.986Z,118.13
2019-01-04T07:01:18.377Z,124.30
2019-01-04T07:03:46.790Z,127.55
2019-01-04T07:06:15.237Z,120.62
2019-01-04T07:08:43.974Z,117.33
2019-01-04T07:11:12.389Z,139.57
2019-01-04T07:13:40.846Z,123.60
2019-01-04T07:16:09.239Z,125.58
2019-01-04T07:18:37.903Z,122.58
2019-01-04T07:21:06.293Z,108.75
2019-01-04T07:23:34.689Z,119.97
2019-01-04T07:26:03.451Z,116.12
2019-01-04T07:28:32.135Z,121.10
2019-01-04T07:31:00.534Z,130.45
2019-01-04T07:33:28.941Z,125.53
2019-01-04T07:35:57.335Z,132.35
2019-01-04T07:38:26.059Z,123.00
2019-01-04T07:40:54.475Z,137.03
2019-01-04T07:43:22.870Z,122.05
2019-01-04T07:45:51.604Z,127.58
2019-01-04T07:48:20.025Z,121.02
2019-01-04T07:50:48.408Z,132.60
2019-01-04T07:53:16.800Z,125.05
2019-01-04T07:55:45.209Z,121.35
2019-01-04T07:58:13.911Z,136.43
2019-01-04T08:00:42.301Z,128.85
2019-01-04T08:03:10.723Z,125.07
2019-01-04T08:05:39.110Z,126.38
2019-01-04T08:08:07.509Z,123.92
2019-01-04T08:10:35.919Z,129.50
2019-01-04T08:13:04.317Z,122.02
2019-01-04T08:15:32.968Z,119.60
2019-01-04T08:18:01.375Z,131.82
2019-01-04T08:20:29.765Z,105.80
2019-01-04T08:22:58.174Z,116.17
2019-01-04T08:25:26.892Z,116.75
2019-01-04T08:27:55.289Z,110.68
2019-01-04T08:30:23.951Z,102.32
2019-01-04T08:32:52.348Z,110.88
2019-01-04T08:35:20.761Z,106.27
2019-01-04T08:37:49.154Z,106.47
2019-01-04T08:40:17.540Z,96.22
2019-01-04T08:42:45.949Z,108.30
2019-01-04T08:45:14.347Z,120.30
2019-01-04T08:47:42.737Z,96.08
2019-01-04T08:50:11.306Z,95.83
2019-01-04T08:52:39.973Z,108.47
2019-01-04T08:55:09.397Z,98.92
2019-01-04T08:57:38.071Z,107.97
2019-01-04T09:00:11.912Z,117.62
2019-01-04T09:02:40.660Z,87.97
2019-01-04T09:05:09.451Z,103.97
2019-01-04T09:07:37.841Z,100.50
2019-01-04T09:10:07.596Z,84.30
2019-01-04T09:12:35.986Z,84.45
2019-01-04T09:15:06.548Z,85.47
2019-01-04T09:17:34.955Z,74.20
2019-01-04T09:20:04.882Z,82.70
2019-01-04T09:22:33.529Z,82.35
2019-01-04T09:25:01.937Z,77.72
2019-01-04T09:27:30.593Z,80.67
2019-01-04T09:29:58.984Z,80.72
2019-01-04T09:32:27.631Z,83.65
2019-01-04T09:34:56.348Z,82.67
2019-01-04T09:37:25.029Z,77.82
2019-01-04T09:39:53.443Z,86.10
2019-01-04T09:42:22.192Z,81.97
2019-01-04T09:44:50.882Z,72.65
2019-01-04T09:47:19.284Z,77.90
2019-01-04T09:49:47.678Z,72.25
2019-01-04T09:52:16.086Z,69.70
2019-01-04T09:54:44.488Z,72.58
2019-01-04T09:57:13.180Z,67.00
2019-01-04T09:59:41.830Z,72.17
2019-01-04T10:02:10.224Z,61.70
2019-01-04T10:04:38.614Z,72.65
2019-01-04T10:07:07.022Z,73.17
2019-01-04T10:09:35.414Z,74.55
2019-01-04T10:12:04.068Z,61.33
2019-01-04T10:14:32.474Z,68.22
2019-01-04T10:17:00.884Z,61.75
2019-01-04T10:19:29.283Z,57.17
2019-01-04T10:21:57.688Z,59.83
2019-01-04T10:24:26.080Z,70.10
2019-01-04T10:26:54.484Z,60.33
2019-01-04T10:29:22.887Z,63.92
2019-01-04T10:31:51.280Z,55.63
2019-01-04T10:34:19.685Z,56.98
2019-01-04T10:36:48.077Z,53.48
2019-01-04T10:39:16.748Z,51.85
2019-01-04T10:41:45.157Z,53.52
2019-01-04T10:44:13.814Z,63.08
2019-01-04T10:46:42.601Z,51.90
2019-01-04T10:49:11.288Z,44.18
2019-01-04T10:51:40.019Z,52.65
2019-01-04T10:54:08.385Z,55.65
2019-01-04T10:56:36.784Z,66.42
2019-01-04T10:59:05.622Z,67.10
2019-01-04T11:01:34.269Z,58.10
2019-01-04T11:04:02.662Z,56.10
2019-01-04T11:06:31.373Z,52.43
2019-01-04T11:08:59.777Z,63.70
2019-01-04T11:11:28.172Z,64.70
2019-01-04T11:13:56.576Z,57.55
2019-01-04T11:16:25.300Z,63.83
2019-01-04T11:18:53.694Z,63.92
2019-01-04T11:21:22.098Z,71.47
2019-01-04T11:23:59.251Z,64.03
2019-01-04T11:26:31.005Z,74.85
2019-01-04T11:29:18.882Z,59.18
2019-01-04T11:32:02.151Z,70.90
2019-01-04T11:34:49.837Z,72.25
2019-01-04T11:37:27.202Z,64.80
2019-01-04T11:40:13.661Z,60.95
2019-01-04T11:42:51.108Z,62.35
2019-01-04T11:45:22.843Z,59.55
2019-01-04T11:48:21.728Z,60.03
2019-01-04T11:51:14.057Z,59.55
2019-01-04T11:53:42.540Z,57.05
2019-01-04T11:56:10.930Z,70.22
2019-01-04T11:58:39.321Z,56.23
2019-01-04T12:01:07.727Z,56.53
2019-01-04T12:03:36.357Z,65.62
2019-01-04T12:06:04.749Z,76.05
2019-01-04T12:08:33.437Z,54.48
2019-01-04T12:11:01.830Z,49.60
2019-01-04T12:13:30.222Z,49.53
2019-01-04T12:15:58.632Z,47.75
2019-01-04T12:18:27.024Z,49.98
2019-01-04T12:20:55.738Z,58.75
2019-01-04T12:23:24.514Z,69.62
2019-01-04T12:25:52.893Z,64.35
2019-01-04T12:28:21.285Z,53.33
2019-01-04T12:30:49.969Z,52.90
2019-01-04T12:33:18.365Z,53.75
2019-01-04T12:35:46.751Z,68.15
2019-01-04T12:38:15.456Z,63.28
2019-01-04T12:40:43.803Z,67.30
2019-01-04T12:43:12.198Z,55.67
2019-01-04T12:45:40.606Z,51.90
2019-01-04T12:48:08.998Z,64.62
2019-01-04T12:50:37.387Z,74.53
2019-01-04T12:53:05.794Z,65.20
2019-01-04T12:55:34.184Z,71.07
2019-01-04T12:58:02.853Z,69.25
2019-01-04T13:00:31.257Z,63.98
2019-01-04T13:02:59.917Z,62.93
2019-01-04T13:05:28.608Z,61.90
2019-01-04T13:07:57.016Z,58.40
2019-01-04T13:10:25.874Z,56.50
2019-01-04T13:12:54.335Z,53.78
2019-01-04T13:15:22.740Z,48.87
2019-01-04T13:17:51.137Z,56.28
2019-01-04T13:20:19.539Z,56.77
2019-01-04T13:22:47.926Z,54.90
2019-01-04T13:25:16.339Z,63.35
2019-01-04T13:27:45.040Z,64.65
2019-01-04T13:30:13.724Z,64.85
2019-01-04T13:32:42.133Z,53.25
2019-01-04T13:35:10.524Z,62.17
2019-01-04T13:37:38.908Z,50.25
2019-01-04T13:40:07.650Z,50.12
2019-01-04T13:42:36.040Z,46.55
2019-01-04T13:45:05.471Z,61.02
2019-01-04T13:47:33.879Z,61.58
2019-01-04T13:50:02.596Z,57.10
2019-01-04T13:52:31.282Z,53.58
2019-01-04T13:54:59.697Z,51.40
2019-01-04T13:57:28.158Z,51.20
2019-01-04T13:59:56.841Z,61.25
2019-01-04T14:02:25.257Z,58.13
2019-01-04T14:04:53.646Z,58.30
2019-01-04T14:07:22.034Z,49.20
2019-01-04T14:09:50.451Z,48.55
2019-01-04T14:12:18.839Z,52.75
2019-01-04T14:14:47.242Z,44.90
2019-01-04T14:17:15.901Z,47.48
2019-01-04T14:19:44.579Z,50.43
2019-01-04T14:22:12.974Z,46.37
2019-01-04T14:24:41.403Z,61.95
2019-01-04T14:27:10.017Z,65.92
2019-01-04T14:29:38.707Z,52.33
2019-01-04T14:32:07.114Z,57.05
2019-01-04T14:34:35.523Z,55.73
2019-01-04T14:37:04.249Z,58.28
2019-01-04T14:39:32.639Z,65.03
2019-01-04T14:42:01.054Z,57.93
2019-01-04T14:44:29.692Z,45.58
2019-01-04T14:46:58.376Z,58.35
2019-01-04T14:49:27.027Z,54.08
2019-01-04T14:51:55.418Z,49.05
2019-01-04T14:54:24.052Z,43.23
2019-01-04T14:56:52.458Z,47.95
2019-01-04T14:59:21.194Z,42.23
2019-01-04T15:01:49.584Z,43.33
2019-01-04T15:04:18.258Z,44.67
2019-01-04T15:06:46.647Z,37.67
2019-01-04T15:09:15.048Z,51.40
2019-01-04T15:11:43.907Z,51.88
2019-01-04T15:14:12.596Z,43.35
2019-01-04T15:16:40.986Z,50.10
2019-01-04T15:19:09.389Z,45.95
2019-01-04T15:21:37.785Z,42.55
2019-01-04T15:24:06.191Z,45.12
2019-01-04T15:26:34.578Z,41.85
2019-01-04T15:29:02.978Z,42.85
2019-01-04T15:31:31.387Z,38.60
2019-01-04T15:33:59.779Z,38.50
2019-01-04T15:36:28.178Z,38.90
2019-01-04T15:38:56.573Z,39.53
2019-01-04T15:41:24.967Z,50.85
2019-01-04T15:43:53.369Z,42.85
2019-01-04T15:46:21.774Z,42.98
2019-01-04T15:48:50.160Z,42.93
2019-01-04T15:51:18.884Z,43.85
2019-01-04T15:53:47.577Z,47.30
2019-01-04T15:56:15.971Z,45.52
2019-01-04T15:58:44.635Z,56.15
2019-01-04T16:01:13.326Z,45.80
2019-01-04T16:03:41.716Z,42.53
2019-01-04T16:06:10.122Z,45.60
2019-01-04T16:08:38.769Z,46.02
2019-01-04T16:11:07.454Z,58.80
2019-01-04T16:13:35.858Z,40.67
2019-01-04T16:16:04.246Z,41.68
2019-01-04T16:18:32.632Z,41.35
2019-01-04T16:21:01.062Z,42.88
2019-01-04T16:23:29.454Z,48.48
2019-01-04T16:25:57.846Z,34.63
2019-01-04T16:28:26.249Z,42.93
2019-01-04T16:30:54.881Z,36.75
2019-01-04T16:33:23.580Z,39.63
2019-01-04T16:35:51.990Z,39.50
2019-01-04T16:38:20.641Z,55.92
2019-01-04T16:40:49.031Z,48.65
2019-01-04T16:43:17.437Z,51.95
2019-01-04T16:45:45.834Z,43.33
2019-01-04T16:48:14.568Z,50.12
2019-01-04T16:50:43.252Z,44.20
2019-01-04T16:53:11.644Z,63.58
2019-01-04T16:55:40.116Z,46.88
2019-01-04T16:58:08.521Z,58.92
2019-01-04T17:00:37.177Z,58.98
2019-01-04T17:03:05.643Z,67.53
2019-01-04T17:05:34.052Z,61.45
2019-01-04T17:08:02.508Z,53.87
2019-01-04T17:10:31.306Z,70.40
2019-01-04T17:12:59.718Z,53.83
2019-01-04T17:15:28.108Z,52.48
2019-01-04T17:17:56.538Z,75.10
2019-01-04T17:20:24.906Z,50.67
2019-01-04T17:22:53.295Z,59.08
2019-01-04T17:25:21.993Z,47.20
2019-01-04T17:27:50.409Z,43.10
2019-01-04T17:30:18.810Z,53.92
2019-01-04T17:32:47.202Z,61.00
2019-01-04T17:35:15.612Z,53.33
2019-01-04T17:37:43.998Z,53.85
2019-01-04T17:40:12.396Z,45.95
2019-01-04T17:42:40.877Z,51.80
2019-01-04T17:45:09.332Z,44.80
2019-01-04T17:47:37.724Z,39.88
2019-01-04T17:50:07.682Z,50.95
2019-01-04T17:52:36.064Z,55.05
2019-01-04T17:55:05.090Z,56.60
2019-01-04T17:57:33.783Z,44.58
2019-01-04T18:00:02.169Z,44.30
2019-01-04T18:02:30.557Z,42.38
2019-01-04T18:04:59.034Z,48.52
2019-01-04T18:07:27.707Z,58.40
2019-01-04T18:09:56.094Z,52.62
2019-01-04T18:12:24.769Z,49.42
2019-01-04T18:14:53.160Z,46.40
2019-01-04T18:17:21.832Z,44.03
2019-01-04T18:19:50.521Z,49.20
2019-01-04T18:22:19.204Z,49.08
2019-01-04T18:24:47.597Z,45.50
2019-01-04T18:27:16.002Z,49.27
2019-01-04T18:29:44.390Z,51.55
2019-01-04T18:32:12.782Z,49.98
2019-01-04T18:34:41.264Z,46.28
2019-01-04T18:37:09.989Z,47.10
2019-01-04T18:39:38.677Z,49.10
2019-01-04T18:42:07.362Z,47.23
2019-01-04T18:44:35.756Z,39.33
2019-01-04T18:47:04.210Z,38.92
2019-01-04T18:49:32.615Z,43.55
2019-01-04T18:52:01.004Z,53.95
2019-01-04T18:54:29.395Z,36.90
2019-01-04T18:56:57.799Z,49.50
2019-01-04T18:59:26.189Z,45.88
2019-01-04T19:01:54.571Z,38.80
2019-01-04T19:04:22.976Z,43.48
2019-01-04T19:06:51.688Z,42.58
2019-01-04T19:09:20.080Z,44.35
2019-01-04T19:11:48.490Z,47.38
2019-01-04T19:14:16.875Z,46.08
2019-01-04T19:16:52.453Z,47.03
2019-01-04T19:19:20.859Z,43.90
2019-01-04T19:21:49.254Z,55.30
2019-01-04T19:24:17.646Z,50.55
2019-01-04T19:26:46.397Z,53.80
2019-01-04T19:29:15.021Z,49.00
2019-01-04T19:31:43.415Z,60.17
2019-01-04T19:34:11.829Z,57.67
2019-01-04T19:36:40.224Z,49.27
2019-01-04T19:39:48.529Z,47.03
2019-01-04T19:42:16.916Z,54.10
2019-01-04T19:45:05.348Z,45.45
2019-01-04T19:47:33.741Z,54.30
2019-01-04T19:50:42.049Z,51.65
2019-01-04T19:53:10.445Z,53.98
2019-01-04T19:55:38.836Z,50.70
2019-01-04T19:58:07.631Z,60.52
2019-01-04T20:00:36.024Z,58.38
2019-01-04T20:03:04.675Z,49.42
2019-01-04T20:06:13.298Z,55.58
2019-01-04T20:09:39.478Z,51.58
2019-01-04T20:13:05.591Z,61.45
2019-01-04T20:16:13.945Z,56.48
2019-01-04T20:19:02.533Z,52.45
2019-01-04T20:24:39.146Z,64.37
2019-01-04T20:27:26.645Z,65.75
2019-01-04T20:30:14.404Z,54.48
2019-01-04T20:33:01.940Z,54.85
2019-01-04T20:38:24.990Z,68.28
2019-01-04T20:41:12.497Z,50.23
2019-01-04T20:44:00.018Z,54.95
2019-01-04T20:46:47.752Z,66.30
2019-01-04T20:49:35.279Z,58.23
2019-01-04T20:55:11.869Z,58.75
2019-01-04T20:57:59.630Z,61.48
2019-01-04T21:03:23.008Z,63.40
2019-01-04T21:08:59.606Z,60.70
2019-01-04T21:11:47.341Z,72.58
2019-01-04T21:14:34.859Z,61.68
2019-01-04T21:20:11.697Z,65.40
2019-01-04T21:22:59.438Z,72.17
2019-01-04T21:25:47.200Z,71.50
2019-01-04T21:28:34.726Z,69.03
2019-01-04T21:31:22.483Z,70.72
2019-01-04T21:34:10.221Z,66.42
2019-01-04T21:36:57.975Z,72.75
2019-01-04T21:39:45.480Z,62.20
2019-01-04T21:42:33.238Z,67.12
2019-01-04T21:45:20.981Z,62.13
2019-01-04T21:48:08.549Z,63.68
2019-01-04T21:50:56.302Z,56.10
2019-01-04T21:53:44.067Z,60.10
2019-01-04T21:59:20.906Z,68.47
2019-01-04T22:02:08.406Z,65.00
2019-01-04T22:04:55.929Z,62.67
2019-01-04T22:07:43.425Z,59.05
2019-01-04T22:10:30.976Z,49.63
2019-01-04T22:16:26.932Z,61.63
2019-01-04T22:19:14.434Z,58.42
2019-01-04T22:22:01.956Z,59.88
2019-01-04T22:27:38.790Z,51.37
2019-01-04T22:30:47.090Z,54.00
2019-01-04T22:33:34.850Z,55.73
2019-01-04T22:36:22.603Z,49.30
2019-01-04T22:39:10.124Z,51.40
2019-01-04T22:41:57.628Z,54.93
2019-01-04T22:44:45.410Z,49.75
2019-01-04T22:47:32.908Z,55.95
2019-01-04T22:50:21.131Z,50.40
2019-01-04T22:53:08.651Z,48.42
2019-01-04T22:55:56.173Z,54.23
2019-01-04T22:58:43.678Z,52.53
2019-01-04T23:01:31.508Z,57.90
2019-01-04T23:04:19.013Z,57.45
2019-01-04T23:07:06.538Z,54.00
2019-01-04T23:09:54.275Z,44.67
2019-01-04T23:12:41.798Z,52.53
2019-01-04T23:15:29.365Z,44.13
2019-01-04T23:18:17.174Z,54.25
2019-01-04T23:21:43.273Z,44.48
2019-01-04T23:24:30.807Z,44.65
2019-01-04T23:30:07.457Z,49.55
2019-01-04T23:35:44.053Z,49.48
2019-01-04T23:38:31.788Z,46.58
2019-01-04T23:41:19.313Z,42.48
2019-01-04T23:44:07.048Z,46.83
2019-01-04T23:49:30.406Z,43.52
2019-01-04T23:52:17.914Z,40.48
2019-01-04T23:55:05.449Z,41.10
